Pont-a-Celles, Belgium
Current Conditions -  °F | °C
As of 11:20 PM on Monday 22 Dec 2014 (Local Time) from EBCI Reporting Station
Light Rain Light Rain  
Wind Chill: 50°   Ceiling: 1500
Heat Index: 50°   Visibility: 6mi
Dew Point: 46°   Wind: 23mph
Humidity: 87%   Direction: 250°WSW
Pressure: 30.18"   Gusts: 36mph
Location:  50.51°N, 4.37°E
Report Text: EBCI 222220Z 25020G31KT 9999 -RA FEW012 BKN015 10/08 Q1022 TEMPO 4000 -DZ BKN004
Loading
Personal Weather Stations






























Interactive Weather Map New forecast layout! Learn more

10-Day Weather Forecast

Advertisements
Track Severe Weather on mobile